首页
METAR-TAF:

METAR-TAF

机场 :

西安咸阳国际机场

西安, 中华人民共和国

纬度: 34-26N, 经度: 108-45E, 海拔: 479米

当前天气观测

该预报发布于12分钟前的17:00 UTC
风速2节,风向南转西南
温度 -10°C
湿度 72%
气压 1034 hPa
能見度: 5000

METAR: ZLXY 121700Z 21001MPS 5000 HZ NSC M10/M14 Q1034 NOSIG

时间: 01:12 (17:12 UTC)

预报

该预报发布于8小时和8分钟前的09:04 UTC
预报有效从12日的 12点(UTC)到 13日的 12点(UTC)
风速6节,风向东转东北
能見度: 3000

TAF: ZLXY 120904Z 1212/1312 06003MPS 3000 HZ NSC TX06/1307Z TNM09/23Z

超过4000个机场的气象观测和天气预报(METAR&TAF报告)。

可查询的气象台以黄色和红色小点在地图上表示。

将鼠标移到小点上方,可查看气象台名称。

然后点击查看天气观测和预报。

如需切换地图:点击带黑十字的绿色按钮放大地图;点击带横线的绿色按钮缩小地图;或者点击绿色箭头查看邻近地区的地图。


METAR-TAF: